createdAt,value
2023-05-05T07:02:20.813Z,100804.00
2023-05-05T07:05:23.686Z,100808.25
2023-05-05T07:08:26.055Z,100806.50
2023-05-05T07:11:28.808Z,100812.31
2023-05-05T07:14:31.272Z,100817.34
2023-05-05T07:17:35.318Z,100809.38
2023-05-05T07:20:37.480Z,100806.75
2023-05-05T07:23:40.619Z,100801.56
2023-05-05T07:26:43.009Z,100796.16
2023-05-05T07:29:45.694Z,100794.72
2023-05-05T07:32:49.870Z,100800.06
2023-05-05T07:35:52.527Z,100794.47
2023-05-05T07:38:54.972Z,100798.69
2023-05-05T07:41:57.643Z,100803.66
2023-05-05T07:45:00.132Z,100796.87
2023-05-05T07:48:04.477Z,100794.13
2023-05-05T07:51:07.092Z,100797.69
2023-05-05T07:54:09.797Z,100805.09
2023-05-05T07:57:12.244Z,100803.22
2023-05-05T08:00:15.900Z,100804.19
2023-05-05T08:03:24.534Z,100796.97
2023-05-05T08:06:28.530Z,100809.34
2023-05-05T08:09:31.360Z,100807.38
2023-05-05T08:12:33.909Z,100803.53
2023-05-05T08:15:36.889Z,100802.34
2023-05-05T08:18:40.641Z,100797.22
2023-05-05T08:21:43.407Z,100792.78
2023-05-05T08:24:46.231Z,100791.81
2023-05-05T08:27:48.956Z,100793.72
2023-05-05T08:30:51.440Z,100791.94
2023-05-05T08:33:55.876Z,100798.72
2023-05-05T08:36:58.500Z,100791.88
2023-05-05T08:40:01.382Z,100792.03
2023-05-05T08:43:03.970Z,100793.72
2023-05-05T08:46:07.267Z,100783.25
2023-05-05T08:49:14.136Z,100783.81
2023-05-05T08:52:18.367Z,100790.59
2023-05-05T08:55:24.183Z,100791.16
2023-05-05T08:58:28.971Z,100785.16
2023-05-05T09:01:32.114Z,100786.00
2023-05-05T09:04:36.259Z,100772.63
2023-05-05T09:07:41.280Z,100776.03
2023-05-05T09:10:44.697Z,100765.56
2023-05-05T09:13:47.514Z,100767.75
2023-05-05T09:16:50.246Z,100768.94
2023-05-05T09:20:04.109Z,100763.75
2023-05-05T09:23:10.236Z,100769.50
2023-05-05T09:26:12.611Z,100760.66
2023-05-05T09:29:18.669Z,100754.12
2023-05-05T09:32:21.093Z,100765.38
2023-05-05T09:35:25.730Z,100764.97
2023-05-05T09:38:28.239Z,100749.41
2023-05-05T09:41:37.500Z,100754.81
2023-05-05T09:44:40.686Z,100737.78
2023-05-05T09:47:43.397Z,100741.09
2023-05-05T09:50:47.201Z,100736.56
2023-05-05T09:53:50.083Z,100731.78
2023-05-05T09:56:52.697Z,100727.03
2023-05-05T09:59:57.296Z,100729.16
2023-05-05T10:03:01.914Z,100725.19
2023-05-05T10:06:07.763Z,100718.31
2023-05-05T10:09:10.746Z,100727.38
2023-05-05T10:12:13.482Z,100717.63
2023-05-05T10:15:16.019Z,100709.91
2023-05-05T10:18:21.573Z,100712.38
2023-05-05T10:21:25.501Z,100713.06
2023-05-05T10:24:38.754Z,100713.47
2023-05-05T10:27:43.305Z,100703.56
2023-05-05T10:30:46.658Z,100697.38
2023-05-05T10:33:52.060Z,100697.34
2023-05-05T10:36:56.951Z,100706.03
2023-05-05T10:39:59.433Z,100695.25
2023-05-05T10:43:02.310Z,100698.91
2023-05-05T10:46:05.011Z,100693.66
2023-05-05T10:49:13.511Z,100695.72
2023-05-05T10:52:23.427Z,100699.81
2023-05-05T10:55:30.365Z,100691.19
2023-05-05T10:58:47.077Z,100685.38
2023-05-05T11:01:54.389Z,100676.81
2023-05-05T11:05:22.323Z,100677.19
2023-05-05T11:08:27.054Z,100669.94
2023-05-05T11:11:59.403Z,100666.88
2023-05-05T11:15:37.358Z,100664.22
2023-05-05T11:18:40.502Z,100656.56
2023-05-05T11:21:59.750Z,100657.44
2023-05-05T11:25:18.465Z,100652.03
2023-05-05T11:28:23.142Z,100644.19
2023-05-05T11:31:25.616Z,100648.13
2023-05-05T11:34:28.424Z,100636.38
2023-05-05T11:37:30.922Z,100647.34
2023-05-05T11:40:35.068Z,100639.19
2023-05-05T11:43:37.506Z,100639.16
2023-05-05T11:46:40.603Z,100627.81
2023-05-05T11:49:43.171Z,100619.87
2023-05-05T11:52:45.885Z,100626.53
2023-05-05T11:55:49.904Z,100618.38
2023-05-05T11:59:07.045Z,100620.37
2023-05-05T12:02:10.296Z,100614.22
2023-05-05T12:05:14.861Z,100615.50
2023-05-05T12:08:16.938Z,100609.00
2023-05-05T12:11:21.161Z,100615.56
2023-05-05T12:14:23.946Z,100606.37
2023-05-05T12:17:34.614Z,100609.16
2023-05-05T12:20:37.228Z,100607.75
2023-05-05T12:23:39.968Z,100602.38
2023-05-05T12:26:43.827Z,100596.75
2023-05-05T12:29:46.580Z,100598.34
2023-05-05T12:32:48.979Z,100589.50
2023-05-05T12:35:51.730Z,100586.44
2023-05-05T12:38:54.188Z,100578.81
2023-05-05T12:42:03.501Z,100587.56
2023-05-05T12:45:08.248Z,100575.06
2023-05-05T12:48:23.270Z,100570.78
2023-05-05T12:51:27.136Z,100565.78
2023-05-05T12:54:30.206Z,100568.50
2023-05-05T12:57:34.157Z,100569.81
2023-05-05T13:00:37.104Z,100560.59
2023-05-05T13:03:39.508Z,100557.56
2023-05-05T13:06:43.452Z,100549.97
2023-05-05T13:09:46.202Z,100546.03
2023-05-05T13:12:50.493Z,100533.28
2023-05-05T13:15:53.192Z,100533.34
2023-05-05T13:18:57.656Z,100537.25
2023-05-05T13:22:00.002Z,100530.81
2023-05-05T13:25:02.764Z,100530.81
2023-05-05T13:28:07.132Z,100524.44
2023-05-05T13:31:10.035Z,100518.59
2023-05-05T13:34:12.475Z,100517.69
2023-05-05T13:37:15.295Z,100522.06
2023-05-05T13:40:17.718Z,100517.41
2023-05-05T13:43:22.132Z,100515.00
2023-05-05T13:46:24.857Z,100506.81
2023-05-05T13:49:27.825Z,100508.78
2023-05-05T13:52:32.399Z,100509.09
2023-05-05T13:55:36.383Z,100504.34
2023-05-05T13:58:40.169Z,100500.22
2023-05-05T14:01:42.960Z,100498.44
2023-05-05T14:04:45.685Z,100499.31
2023-05-05T14:07:48.202Z,100491.37
2023-05-05T14:10:52.058Z,100488.81
2023-05-05T14:13:56.611Z,100494.00
2023-05-05T14:16:59.297Z,100490.38
2023-05-05T14:20:01.878Z,100488.50
2023-05-05T14:23:04.523Z,100492.44
2023-05-05T14:26:08.876Z,100492.34
2023-05-05T14:29:13.013Z,100490.09
2023-05-05T14:32:15.498Z,100481.53
2023-05-05T14:35:18.499Z,100486.06
2023-05-05T14:38:21.098Z,100485.72
2023-05-05T14:41:24.171Z,100480.41
2023-05-05T14:44:28.402Z,100472.06
2023-05-05T14:47:31.147Z,100478.47
2023-05-05T14:50:33.685Z,100479.56
2023-05-05T14:53:36.454Z,100474.28
2023-05-05T14:56:39.042Z,100478.16
2023-05-05T14:59:43.450Z,100480.31
2023-05-05T15:02:48.019Z,100478.81
2023-05-05T15:05:50.970Z,100476.38
2023-05-05T15:08:53.413Z,100473.69
2023-05-05T15:11:56.295Z,100469.06
2023-05-05T15:15:00.058Z,100474.22
2023-05-05T15:18:02.745Z,100471.72
2023-05-05T15:21:05.206Z,100474.81
2023-05-05T15:24:08.119Z,100464.66
2023-05-05T15:27:10.542Z,100465.47
2023-05-05T15:30:15.147Z,100471.25
2023-05-05T15:33:17.613Z,100470.50
2023-05-05T15:36:22.715Z,100470.63
2023-05-05T15:39:25.262Z,100459.09
2023-05-05T15:42:28.005Z,100458.34
2023-05-05T15:45:31.843Z,100456.03
2023-05-05T15:48:35.696Z,100458.19
2023-05-05T15:51:37.868Z,100460.03
2023-05-05T15:54:41.415Z,100463.81
